sensor_id;sensor_type;location;lat;lon;timestamp;temperature;humidity
34153;DHT22;20426;48.372;10.888;2024-02-16T00:00:10;9.00;99.90
34153;DHT22;20426;48.372;10.888;2024-02-16T00:00:44;9.00;99.90
34153;DHT22;20426;48.372;10.888;2024-02-16T00:01:16;9.00;99.90
34153;DHT22;20426;48.372;10.888;2024-02-16T00:01:47;9.00;99.90
34153;DHT22;20426;48.372;10.888;2024-02-16T00:02:18;8.90;99.90
34153;DHT22;20426;48.372;10.888;2024-02-16T00:02:48;8.90;99.90
34153;DHT22;20426;48.372;10.888;2024-02-16T00:03:19;8.90;99.90
34153;DHT22;20426;48.372;10.888;2024-02-16T00:03:50;8.90;99.90
34153;DHT22;20426;48.372;10.888;2024-02-16T00:04:21;8.80;99.90
34153;DHT22;20426;48.372;10.888;2024-02-16T00:04:51;8.80;99.90
34153;DHT22;20426;48.372;10.888;2024-02-16T00:05:22;8.80;99.90
34153;DHT22;20426;48.372;10.888;2024-02-16T00:05:53;8.80;99.90
34153;DHT22;20426;48.372;10.888;2024-02-16T00:06:24;8.80;99.90
34153;DHT22;20426;48.372;10.888;2024-02-16T00:06:55;8.80;99.90
34153;DHT22;20426;48.372;10.888;2024-02-16T00:07:26;8.90;99.90
34153;DHT22;20426;48.372;10.888;2024-02-16T00:07:57;8.90;99.90
34153;DHT22;20426;48.372;10.888;2024-02-16T00:08:27;8.90;99.90
34153;DHT22;20426;48.372;10.888;2024-02-16T00:08:58;8.90;99.90
34153;DHT22;20426;48.372;10.888;2024-02-16T00:09:29;8.90;99.90
34153;DHT22;20426;48.372;10.888;2024-02-16T00:10:00;8.90;99.90
34153;DHT22;20426;48.372;10.888;2024-02-16T00:10:30;8.90;99.90
34153;DHT22;20426;48.372;10.888;2024-02-16T00:11:01;8.90;99.90
34153;DHT22;20426;48.372;10.888;2024-02-16T00:11:32;8.90;99.90
34153;DHT22;20426;48.372;10.888;2024-02-16T00:12:02;8.90;99.90
34153;DHT22;20426;48.372;10.888;2024-02-16T00:12:34;8.90;99.90
34153;DHT22;20426;48.372;10.888;2024-02-16T00:13:04;8.90;99.90
34153;DHT22;20426;48.372;10.888;2024-02-16T00:13:35;8.90;99.90
34153;DHT22;20426;48.372;10.888;2024-02-16T00:14:06;8.90;99.90
34153;DHT22;20426;48.372;10.888;2024-02-16T00:14:36;8.90;99.90
34153;DHT22;20426;48.372;10.888;2024-02-16T00:15:07;8.80;99.90
34153;DHT22;20426;48.372;10.888;2024-02-16T00:15:38;8.80;99.90
34153;DHT22;20426;48.372;10.888;2024-02-16T00:16:09;8.80;99.90
34153;DHT22;20426;48.372;10.888;2024-02-16T00:16:40;8.80;99.90
34153;DHT22;20426;48.372;10.888;2024-02-16T00:17:10;8.70;99.90
34153;DHT22;20426;48.372;10.888;2024-02-16T00:17:41;8.80;99.90
34153;DHT22;20426;48.372;10.888;2024-02-16T00:18:11;8.70;99.90
34153;DHT22;20426;48.372;10.888;2024-02-16T00:18:43;8.70;99.90
34153;DHT22;20426;48.372;10.888;2024-02-16T00:19:13;8.70;99.90
34153;DHT22;20426;48.372;10.888;2024-02-16T00:19:44;8.60;99.90
34153;DHT22;20426;48.372;10.888;2024-02-16T00:20:15;8.60;99.90
34153;DHT22;20426;48.372;10.888;2024-02-16T00:20:45;8.60;99.90
34153;DHT22;20426;48.372;10.888;2024-02-16T00:21:16;8.50;99.90
34153;DHT22;20426;48.372;10.888;2024-02-16T00:21:47;8.50;99.90
34153;DHT22;20426;48.372;10.888;2024-02-16T00:22:18;8.50;99.90
34153;DHT22;20426;48.372;10.888;2024-02-16T00:22:48;8.50;99.90
34153;DHT22;20426;48.372;10.888;2024-02-16T00:23:19;8.50;99.90
34153;DHT22;20426;48.372;10.888;2024-02-16T00:23:52;8.50;99.90
34153;DHT22;20426;48.372;10.888;2024-02-16T00:24:23;8.50;99.90
34153;DHT22;20426;48.372;10.888;2024-02-16T00:24:54;8.50;99.90
34153;DHT22;20426;48.372;10.888;2024-02-16T00:25:24;8.50;99.90
34153;DHT22;20426;48.372;10.888;2024-02-16T00:25:55;8.50;99.90
34153;DHT22;20426;48.372;10.888;2024-02-16T00:26:26;8.50;99.90
34153;DHT22;20426;48.372;10.888;2024-02-16T00:26:56;8.50;99.90
34153;DHT22;20426;48.372;10.888;2024-02-16T00:27:27;8.50;99.90
34153;DHT22;20426;48.372;10.888;2024-02-16T00:27:59;8.50;99.90
34153;DHT22;20426;48.372;10.888;2024-02-16T00:28:30;8.40;99.90
34153;DHT22;20426;48.372;10.888;2024-02-16T00:29:00;8.50;99.90
34153;DHT22;20426;48.372;10.888;2024-02-16T00:29:31;8.40;99.90
34153;DHT22;20426;48.372;10.888;2024-02-16T00:30:02;8.40;99.90
34153;DHT22;20426;48.372;10.888;2024-02-16T00:30:33;8.40;99.90
34153;DHT22;20426;48.372;10.888;2024-02-16T00:31:04;8.40;99.90
34153;DHT22;20426;48.372;10.888;2024-02-16T00:31:36;8.40;99.90
34153;DHT22;20426;48.372;10.888;2024-02-16T00:32:07;8.30;99.90
34153;DHT22;20426;48.372;10.888;2024-02-16T00:32:38;8.30;99.90
34153;DHT22;20426;48.372;10.888;2024-02-16T00:33:08;8.30;99.90
34153;DHT22;20426;48.372;10.888;2024-02-16T00:33:39;8.30;99.90
34153;DHT22;20426;48.372;10.888;2024-02-16T00:34:10;8.30;99.90
34153;DHT22;20426;48.372;10.888;2024-02-16T00:34:40;8.30;99.90
34153;DHT22;20426;48.372;10.888;2024-02-16T00:35:12;8.30;99.90
34153;DHT22;20426;48.372;10.888;2024-02-16T00:35:42;8.20;99.90
34153;DHT22;20426;48.372;10.888;2024-02-16T00:36:13;8.20;99.90
34153;DHT22;20426;48.372;10.888;2024-02-16T00:36:44;8.20;99.90
34153;DHT22;20426;48.372;10.888;2024-02-16T00:37:15;8.20;99.90
34153;DHT22;20426;48.372;10.888;2024-02-16T00:37:46;8.20;99.90
34153;DHT22;20426;48.372;10.888;2024-02-16T00:38:16;8.20;99.90
34153;DHT22;20426;48.372;10.888;2024-02-16T00:38:47;8.20;99.90
34153;DHT22;20426;48.372;10.888;2024-02-16T00:39:18;8.20;99.90
34153;DHT22;20426;48.372;10.888;2024-02-16T00:39:48;8.20;99.90
34153;DHT22;20426;48.372;10.888;2024-02-16T00:40:19;8.20;99.90
34153;DHT22;20426;48.372;10.888;2024-02-16T00:40:50;8.20;99.90
34153;DHT22;20426;48.372;10.888;2024-02-16T00:41:22;8.20;99.90
34153;DHT22;20426;48.372;10.888;2024-02-16T00:41:53;8.20;99.90
34153;DHT22;20426;48.372;10.888;2024-02-16T00:42:23;8.20;99.90
34153;DHT22;20426;48.372;10.888;2024-02-16T00:42:55;8.20;99.90
34153;DHT22;20426;48.372;10.888;2024-02-16T00:43:25;8.20;99.90
34153;DHT22;20426;48.372;10.888;2024-02-16T00:43:56;8.20;99.90
34153;DHT22;20426;48.372;10.888;2024-02-16T00:44:27;8.20;99.90
34153;DHT22;20426;48.372;10.888;2024-02-16T00:44:58;8.20;99.90
34153;DHT22;20426;48.372;10.888;2024-02-16T00:45:30;8.20;99.90
34153;DHT22;20426;48.372;10.888;2024-02-16T00:46:01;8.20;99.90
34153;DHT22;20426;48.372;10.888;2024-02-16T00:46:32;8.20;99.90
34153;DHT22;20426;48.372;10.888;2024-02-16T00:47:03;8.20;99.90
34153;DHT22;20426;48.372;10.888;2024-02-16T00:47:36;8.20;99.90
34153;DHT22;20426;48.372;10.888;2024-02-16T00:48:07;8.20;99.90
34153;DHT22;20426;48.372;10.888;2024-02-16T00:48:38;8.20;99.90
34153;DHT22;20426;48.372;10.888;2024-02-16T00:49:08;8.20;99.90
34153;DHT22;20426;48.372;10.888;2024-02-16T00:49:40;8.20;99.90
34153;DHT22;20426;48.372;10.888;2024-02-16T00:50:11;8.20;99.90
34153;DHT22;20426;48.372;10.888;2024-02-16T00:50:42;8.20;99.90
34153;DHT22;20426;48.372;10.888;2024-02-16T00:51:13;8.10;99.90
34153;DHT22;20426;48.372;10.888;2024-02-16T00:51:44;8.10;99.90
34153;DHT22;20426;48.372;10.888;2024-02-16T00:52:14;8.10;99.90
34153;DHT22;20426;48.372;10.888;2024-02-16T00:52:45;8.10;99.90
34153;DHT22;20426;48.372;10.888;2024-02-16T00:53:16;8.10;99.90
34153;DHT22;20426;48.372;10.888;2024-02-16T00:53:46;8.10;99.90
34153;DHT22;20426;48.372;10.888;2024-02-16T00:54:17;8.00;99.90
34153;DHT22;20426;48.372;10.888;2024-02-16T00:54:49;8.00;99.90
34153;DHT22;20426;48.372;10.888;2024-02-16T00:55:19;8.00;99.90
34153;DHT22;20426;48.372;10.888;2024-02-16T00:55:50;8.00;99.90
34153;DHT22;20426;48.372;10.888;2024-02-16T00:56:21;8.00;99.90
34153;DHT22;20426;48.372;10.888;2024-02-16T00:56:52;8.00;99.90
34153;DHT22;20426;48.372;10.888;2024-02-16T00:57:22;8.00;99.90
34153;DHT22;20426;48.372;10.888;2024-02-16T00:57:53;8.00;99.90
34153;DHT22;20426;48.372;10.888;2024-02-16T00:58:24;8.00;99.90
34153;DHT22;20426;48.372;10.888;2024-02-16T00:58:54;7.90;99.90
34153;DHT22;20426;48.372;10.888;2024-02-16T00:59:25;7.90;99.90
34153;DHT22;20426;48.372;10.888;2024-02-16T00:59:56;7.90;99.90
34153;DHT22;20426;48.372;10.888;2024-02-16T01:00:26;7.90;99.90
34153;DHT22;20426;48.372;10.888;2024-02-16T01:00:57;7.90;99.90
34153;DHT22;20426;48.372;10.888;2024-02-16T01:01:28;7.90;99.90
34153;DHT22;20426;48.372;10.888;2024-02-16T01:01:58;8.00;99.90
34153;DHT22;20426;48.372;10.888;2024-02-16T01:02:29;8.00;99.90
34153;DHT22;20426;48.372;10.888;2024-02-16T01:03:02;8.00;99.90
34153;DHT22;20426;48.372;10.888;2024-02-16T01:03:33;7.90;99.90
34153;DHT22;20426;48.372;10.888;2024-02-16T01:04:03;8.00;99.90
34153;DHT22;20426;48.372;10.888;2024-02-16T01:04:34;7.90;99.90
34153;DHT22;20426;48.372;10.888;2024-02-16T01:05:05;7.90;99.90
34153;DHT22;20426;48.372;10.888;2024-02-16T01:05:36;7.90;99.90
34153;DHT22;20426;48.372;10.888;2024-02-16T01:06:07;7.90;99.90
34153;DHT22;20426;48.372;10.888;2024-02-16T01:06:40;7.90;99.90
34153;DHT22;20426;48.372;10.888;2024-02-16T01:07:11;7.90;99.90
34153;DHT22;20426;48.372;10.888;2024-02-16T01:07:42;7.90;99.90
34153;DHT22;20426;48.372;10.888;2024-02-16T01:08:13;7.90;99.90
34153;DHT22;20426;48.372;10.888;2024-02-16T01:08:43;7.90;99.90
34153;DHT22;20426;48.372;10.888;2024-02-16T01:09:14;7.90;99.90
34153;DHT22;20426;48.372;10.888;2024-02-16T01:09:45;7.90;99.90
34153;DHT22;20426;48.372;10.888;2024-02-16T01:10:16;8.00;99.90
34153;DHT22;20426;48.372;10.888;2024-02-16T01:10:47;8.00;99.90
34153;DHT22;20426;48.372;10.888;2024-02-16T01:11:17;8.00;99.90
34153;DHT22;20426;48.372;10.888;2024-02-16T01:11:49;8.00;99.90
34153;DHT22;20426;48.372;10.888;2024-02-16T01:12:20;8.00;99.90
34153;DHT22;20426;48.372;10.888;2024-02-16T01:12:51;8.00;99.90
34153;DHT22;20426;48.372;10.888;2024-02-16T01:13:23;8.00;99.90
34153;DHT22;20426;48.372;10.888;2024-02-16T01:13:53;8.00;99.90
34153;DHT22;20426;48.372;10.888;2024-02-16T01:14:24;8.00;99.90
34153;DHT22;20426;48.372;10.888;2024-02-16T01:14:55;8.10;99.90
34153;DHT22;20426;48.372;10.888;2024-02-16T01:15:25;8.10;99.90
34153;DHT22;20426;48.372;10.888;2024-02-16T01:15:57;8.10;99.90
34153;DHT22;20426;48.372;10.888;2024-02-16T01:16:27;8.10;99.90
34153;DHT22;20426;48.372;10.888;2024-02-16T01:16:59;8.10;99.90
34153;DHT22;20426;48.372;10.888;2024-02-16T01:17:30;8.10;99.90
34153;DHT22;20426;48.372;10.888;2024-02-16T01:18:04;8.10;99.90
34153;DHT22;20426;48.372;10.888;2024-02-16T01:18:35;8.10;99.90
34153;DHT22;20426;48.372;10.888;2024-02-16T01:19:07;8.10;99.90
34153;DHT22;20426;48.372;10.888;2024-02-16T01:19:40;8.00;99.90
34153;DHT22;20426;48.372;10.888;2024-02-16T01:20:11;8.10;99.90
34153;DHT22;20426;48.372;10.888;2024-02-16T01:20:42;8.00;99.90
34153;DHT22;20426;48.372;10.888;2024-02-16T01:21:13;8.10;99.90
34153;DHT22;20426;48.372;10.888;2024-02-16T01:21:44;8.10;99.90
34153;DHT22;20426;48.372;10.888;2024-02-16T01:22:17;8.10;99.90
34153;DHT22;20426;48.372;10.888;2024-02-16T01:22:48;8.10;99.90
34153;DHT22;20426;48.372;10.888;2024-02-16T01:23:20;8.10;99.90
34153;DHT22;20426;48.372;10.888;2024-02-16T01:23:51;8.10;99.90
34153;DHT22;20426;48.372;10.888;2024-02-16T01:24:21;8.10;99.90
34153;DHT22;20426;48.372;10.888;2024-02-16T01:24:53;8.10;99.90
34153;DHT22;20426;48.372;10.888;2024-02-16T01:25:23;8.10;99.90
34153;DHT22;20426;48.372;10.888;2024-02-16T01:25:54;8.10;99.90
34153;DHT22;20426;48.372;10.888;2024-02-16T01:26:25;8.10;99.90
34153;DHT22;20426;48.372;10.888;2024-02-16T01:26:55;8.10;99.90
34153;DHT22;20426;48.372;10.888;2024-02-16T01:27:26;8.10;99.90
34153;DHT22;20426;48.372;10.888;2024-02-16T01:27:58;8.10;99.90
34153;DHT22;20426;48.372;10.888;2024-02-16T01:28:29;8.10;99.90
34153;DHT22;20426;48.372;10.888;2024-02-16T01:29:00;8.00;99.90
34153;DHT22;20426;48.372;10.888;2024-02-16T01:29:32;8.00;99.90
34153;DHT22;20426;48.372;10.888;2024-02-16T01:30:03;8.00;99.90
34153;DHT22;20426;48.372;10.888;2024-02-16T01:30:34;8.00;99.90
34153;DHT22;20426;48.372;10.888;2024-02-16T01:31:05;8.00;99.90
34153;DHT22;20426;48.372;10.888;2024-02-16T01:31:35;8.00;99.90
34153;DHT22;20426;48.372;10.888;2024-02-16T01:32:07;8.00;99.90
34153;DHT22;20426;48.372;10.888;2024-02-16T01:32:37;8.00;99.90
34153;DHT22;20426;48.372;10.888;2024-02-16T01:33:08;8.00;99.90
34153;DHT22;20426;48.372;10.888;2024-02-16T01:33:39;8.00;99.90
34153;DHT22;20426;48.372;10.888;2024-02-16T01:34:09;8.00;99.90
34153;DHT22;20426;48.372;10.888;2024-02-16T01:34:40;8.10;99.90
34153;DHT22;20426;48.372;10.888;2024-02-16T01:35:11;8.10;99.90
34153;DHT22;20426;48.372;10.888;2024-02-16T01:35:41;8.10;99.90
34153;DHT22;20426;48.372;10.888;2024-02-16T01:36:12;8.10;99.90
34153;DHT22;20426;48.372;10.888;2024-02-16T01:36:43;8.10;99.90
34153;DHT22;20426;48.372;10.888;2024-02-16T01:37:13;8.10;99.90
34153;DHT22;20426;48.372;10.888;2024-02-16T01:37:44;8.10;99.90
34153;DHT22;20426;48.372;10.888;2024-02-16T01:38:15;8.10;99.90
34153;DHT22;20426;48.372;10.888;2024-02-16T01:38:45;8.10;99.90
34153;DHT22;20426;48.372;10.888;2024-02-16T01:39:16;8.10;99.90
34153;DHT22;20426;48.372;10.888;2024-02-16T01:39:47;8.10;99.90
34153;DHT22;20426;48.372;10.888;2024-02-16T01:40:17;8.10;99.90
34153;DHT22;20426;48.372;10.888;2024-02-16T01:40:48;8.10;99.90
34153;DHT22;20426;48.372;10.888;2024-02-16T01:41:19;8.10;99.90
34153;DHT22;20426;48.372;10.888;2024-02-16T01:41:49;8.10;99.90
34153;DHT22;20426;48.372;10.888;2024-02-16T01:42:20;8.20;99.90
34153;DHT22;20426;48.372;10.888;2024-02-16T01:42:51;8.20;99.90
34153;DHT22;20426;48.372;10.888;2024-02-16T01:43:22;8.20;99.90
34153;DHT22;20426;48.372;10.888;2024-02-16T01:43:54;8.20;99.90
34153;DHT22;20426;48.372;10.888;2024-02-16T01:44:25;8.20;99.90
34153;DHT22;20426;48.372;10.888;2024-02-16T01:44:55;8.20;99.90
34153;DHT22;20426;48.372;10.888;2024-02-16T01:45:26;8.20;99.90
34153;DHT22;20426;48.372;10.888;2024-02-16T01:45:57;8.10;99.90
34153;DHT22;20426;48.372;10.888;2024-02-16T01:46:29;8.10;99.90
34153;DHT22;20426;48.372;10.888;2024-02-16T01:47:00;8.10;99.90
34153;DHT22;20426;48.372;10.888;2024-02-16T01:47:31;8.10;99.90
34153;DHT22;20426;48.372;10.888;2024-02-16T01:48:02;8.10;99.90
34153;DHT22;20426;48.372;10.888;2024-02-16T01:48:33;8.10;99.90
34153;DHT22;20426;48.372;10.888;2024-02-16T01:49:04;8.10;99.90
34153;DHT22;20426;48.372;10.888;2024-02-16T01:49:34;8.10;99.90
34153;DHT22;20426;48.372;10.888;2024-02-16T01:50:06;8.10;99.90
34153;DHT22;20426;48.372;10.888;2024-02-16T01:50:37;8.00;99.90
34153;DHT22;20426;48.372;10.888;2024-02-16T01:51:09;8.00;99.90
34153;DHT22;20426;48.372;10.888;2024-02-16T01:51:40;8.00;99.90
34153;DHT22;20426;48.372;10.888;2024-02-16T01:52:11;8.00;99.90
34153;DHT22;20426;48.372;10.888;2024-02-16T01:52:43;8.00;99.90
34153;DHT22;20426;48.372;10.888;2024-02-16T01:53:17;8.00;99.90
34153;DHT22;20426;48.372;10.888;2024-02-16T01:53:49;8.00;99.90
34153;DHT22;20426;48.372;10.888;2024-02-16T01:54:19;8.00;99.90
34153;DHT22;20426;48.372;10.888;2024-02-16T01:54:50;8.00;99.90
34153;DHT22;20426;48.372;10.888;2024-02-16T01:55:21;8.00;99.90
34153;DHT22;20426;48.372;10.888;2024-02-16T01:55:51;8.00;99.90
34153;DHT22;20426;48.372;10.888;2024-02-16T01:56:22;8.00;99.90
34153;DHT22;20426;48.372;10.888;2024-02-16T01:56:54;8.10;99.90
34153;DHT22;20426;48.372;10.888;2024-02-16T01:57:25;8.10;99.90
34153;DHT22;20426;48.372;10.888;2024-02-16T01:57:58;8.10;99.90
34153;DHT22;20426;48.372;10.888;2024-02-16T01:58:29;8.00;99.90
34153;DHT22;20426;48.372;10.888;2024-02-16T01:59:00;8.00;99.90
34153;DHT22;20426;48.372;10.888;2024-02-16T01:59:31;8.10;99.90
34153;DHT22;20426;48.372;10.888;2024-02-16T02:00:04;8.10;99.90
34153;DHT22;20426;48.372;10.888;2024-02-16T02:00:38;8.10;99.90
34153;DHT22;20426;48.372;10.888;2024-02-16T02:01:09;8.10;99.90
34153;DHT22;20426;48.372;10.888;2024-02-16T02:01:40;8.10;99.90
34153;DHT22;20426;48.372;10.888;2024-02-16T02:02:10;8.10;99.90
34153;DHT22;20426;48.372;10.888;2024-02-16T02:02:44;8.10;99.90
34153;DHT22;20426;48.372;10.888;2024-02-16T02:03:15;8.10;99.90
34153;DHT22;20426;48.372;10.888;2024-02-16T02:03:48;8.10;99.90
34153;DHT22;20426;48.372;10.888;2024-02-16T02:04:19;8.10;99.90
34153;DHT22;20426;48.372;10.888;2024-02-16T02:04:50;8.10;99.90
34153;DHT22;20426;48.372;10.888;2024-02-16T02:05:21;8.10;99.90
34153;DHT22;20426;48.372;10.888;2024-02-16T02:05:51;8.10;99.90
34153;DHT22;20426;48.372;10.888;2024-02-16T02:06:24;8.20;99.90
34153;DHT22;20426;48.372;10.888;2024-02-16T02:06:55;8.10;99.90
34153;DHT22;20426;48.372;10.888;2024-02-16T02:07:26;8.10;99.90
34153;DHT22;20426;48.372;10.888;2024-02-16T02:07:57;8.10;99.90
34153;DHT22;20426;48.372;10.888;2024-02-16T02:08:28;8.10;99.90
34153;DHT22;20426;48.372;10.888;2024-02-16T02:08:58;8.10;99.90
34153;DHT22;20426;48.372;10.888;2024-02-16T02:09:29;8.20;99.90
34153;DHT22;20426;48.372;10.888;2024-02-16T02:10:00;8.20;99.90
34153;DHT22;20426;48.372;10.888;2024-02-16T02:10:30;8.20;99.90
34153;DHT22;20426;48.372;10.888;2024-02-16T02:11:01;8.20;99.90
34153;DHT22;20426;48.372;10.888;2024-02-16T02:11:33;8.20;99.90
34153;DHT22;20426;48.372;10.888;2024-02-16T02:12:04;8.20;99.90
34153;DHT22;20426;48.372;10.888;2024-02-16T02:13:15;8.20;99.90
34153;DHT22;20426;48.372;10.888;2024-02-16T02:21:20;8.10;99.90
34153;DHT22;20426;48.372;10.888;2024-02-16T02:23:04;8.10;99.90
34153;DHT22;20426;48.372;10.888;2024-02-16T02:28:29;8.10;99.90
34153;DHT22;20426;48.372;10.888;2024-02-16T02:30:18;8.10;99.90
34153;DHT22;20426;48.372;10.888;2024-02-16T02:53:43;7.70;99.90
34153;DHT22;20426;48.372;10.888;2024-02-16T02:54:14;7.70;99.90
34153;DHT22;20426;48.372;10.888;2024-02-16T02:54:45;7.70;99.90
34153;DHT22;20426;48.372;10.888;2024-02-16T02:55:15;7.70;99.90
34153;DHT22;20426;48.372;10.888;2024-02-16T02:55:46;7.70;99.90
34153;DHT22;20426;48.372;10.888;2024-02-16T02:56:17;7.70;99.90
34153;DHT22;20426;48.372;10.888;2024-02-16T02:56:48;7.70;99.90
34153;DHT22;20426;48.372;10.888;2024-02-16T02:57:19;7.70;99.90
34153;DHT22;20426;48.372;10.888;2024-02-16T02:57:50;7.70;99.90
34153;DHT22;20426;48.372;10.888;2024-02-16T02:58:20;7.70;99.90
34153;DHT22;20426;48.372;10.888;2024-02-16T02:58:51;7.70;99.90
34153;DHT22;20426;48.372;10.888;2024-02-16T02:59:22;7.70;99.90
34153;DHT22;20426;48.372;10.888;2024-02-16T02:59:52;7.70;99.90
34153;DHT22;20426;48.372;10.888;2024-02-16T03:00:23;7.70;99.90
34153;DHT22;20426;48.372;10.888;2024-02-16T03:00:54;7.70;99.90
34153;DHT22;20426;48.372;10.888;2024-02-16T03:01:25;7.70;99.90
34153;DHT22;20426;48.372;10.888;2024-02-16T03:01:56;7.70;99.90
34153;DHT22;20426;48.372;10.888;2024-02-16T03:02:26;7.70;99.90
34153;DHT22;20426;48.372;10.888;2024-02-16T03:02:57;7.70;99.90
34153;DHT22;20426;48.372;10.888;2024-02-16T03:03:28;7.70;99.90
34153;DHT22;20426;48.372;10.888;2024-02-16T03:03:59;7.70;99.90
34153;DHT22;20426;48.372;10.888;2024-02-16T03:04:31;7.70;99.90
34153;DHT22;20426;48.372;10.888;2024-02-16T03:05:02;7.70;99.90
34153;DHT22;20426;48.372;10.888;2024-02-16T03:05:32;7.70;99.90
34153;DHT22;20426;48.372;10.888;2024-02-16T03:06:03;7.70;99.90
34153;DHT22;20426;48.372;10.888;2024-02-16T03:06:34;7.70;99.90
34153;DHT22;20426;48.372;10.888;2024-02-16T03:07:05;7.70;99.90
34153;DHT22;20426;48.372;10.888;2024-02-16T03:07:36;7.70;99.90
34153;DHT22;20426;48.372;10.888;2024-02-16T03:08:06;7.70;99.90
34153;DHT22;20426;48.372;10.888;2024-02-16T03:08:37;7.70;99.90
34153;DHT22;20426;48.372;10.888;2024-02-16T03:09:08;7.60;99.90
34153;DHT22;20426;48.372;10.888;2024-02-16T03:09:38;7.70;99.90
34153;DHT22;20426;48.372;10.888;2024-02-16T03:10:10;7.70;99.90
34153;DHT22;20426;48.372;10.888;2024-02-16T03:10:40;7.70;99.90
34153;DHT22;20426;48.372;10.888;2024-02-16T03:11:11;7.70;99.90
34153;DHT22;20426;48.372;10.888;2024-02-16T03:11:42;7.70;99.90
34153;DHT22;20426;48.372;10.888;2024-02-16T03:12:13;7.80;99.90
34153;DHT22;20426;48.372;10.888;2024-02-16T03:12:44;7.80;99.90
34153;DHT22;20426;48.372;10.888;2024-02-16T03:13:14;7.80;99.90
34153;DHT22;20426;48.372;10.888;2024-02-16T03:13:48;7.80;99.90
34153;DHT22;20426;48.372;10.888;2024-02-16T03:14:19;7.80;99.90
34153;DHT22;20426;48.372;10.888;2024-02-16T03:14:49;7.80;99.90
34153;DHT22;20426;48.372;10.888;2024-02-16T03:15:20;7.80;99.90
34153;DHT22;20426;48.372;10.888;2024-02-16T03:15:51;7.80;99.90
34153;DHT22;20426;48.372;10.888;2024-02-16T03:16:22;7.80;99.90
34153;DHT22;20426;48.372;10.888;2024-02-16T03:16:52;7.80;99.90
34153;DHT22;20426;48.372;10.888;2024-02-16T03:17:23;7.80;99.90
34153;DHT22;20426;48.372;10.888;2024-02-16T03:17:54;7.80;99.90
34153;DHT22;20426;48.372;10.888;2024-02-16T03:18:24;7.80;99.90
34153;DHT22;20426;48.372;10.888;2024-02-16T03:18:55;7.80;99.90
34153;DHT22;20426;48.372;10.888;2024-02-16T03:19:26;7.80;99.90
34153;DHT22;20426;48.372;10.888;2024-02-16T03:19:56;7.80;99.90
34153;DHT22;20426;48.372;10.888;2024-02-16T03:20:27;7.80;99.90
34153;DHT22;20426;48.372;10.888;2024-02-16T03:20:58;7.80;99.90
34153;DHT22;20426;48.372;10.888;2024-02-16T03:21:28;7.80;99.90
34153;DHT22;20426;48.372;10.888;2024-02-16T03:21:59;7.70;99.90
34153;DHT22;20426;48.372;10.888;2024-02-16T03:22:30;7.70;99.90
34153;DHT22;20426;48.372;10.888;2024-02-16T03:23:00;7.70;99.90
34153;DHT22;20426;48.372;10.888;2024-02-16T03:23:31;7.70;99.90
34153;DHT22;20426;48.372;10.888;2024-02-16T03:24:02;7.70;99.90
34153;DHT22;20426;48.372;10.888;2024-02-16T03:24:34;7.70;99.90
34153;DHT22;20426;48.372;10.888;2024-02-16T03:25:05;7.70;99.90
34153;DHT22;20426;48.372;10.888;2024-02-16T03:25:36;7.70;99.90
34153;DHT22;20426;48.372;10.888;2024-02-16T03:26:14;7.70;99.90
34153;DHT22;20426;48.372;10.888;2024-02-16T03:26:45;7.70;99.90
34153;DHT22;20426;48.372;10.888;2024-02-16T03:27:15;7.70;99.90
34153;DHT22;20426;48.372;10.888;2024-02-16T03:27:46;7.60;99.90
34153;DHT22;20426;48.372;10.888;2024-02-16T03:28:17;7.60;99.90
34153;DHT22;20426;48.372;10.888;2024-02-16T03:28:48;7.60;99.90
34153;DHT22;20426;48.372;10.888;2024-02-16T03:29:19;7.70;99.90
34153;DHT22;20426;48.372;10.888;2024-02-16T03:29:49;7.60;99.90
34153;DHT22;20426;48.372;10.888;2024-02-16T03:30:20;7.60;99.90
34153;DHT22;20426;48.372;10.888;2024-02-16T03:30:52;7.60;99.90
34153;DHT22;20426;48.372;10.888;2024-02-16T03:31:24;7.60;99.90
34153;DHT22;20426;48.372;10.888;2024-02-16T03:31:54;7.60;99.90
34153;DHT22;20426;48.372;10.888;2024-02-16T03:32:25;7.60;99.90
34153;DHT22;20426;48.372;10.888;2024-02-16T03:32:56;7.60;99.90
34153;DHT22;20426;48.372;10.888;2024-02-16T03:33:27;7.60;99.90
34153;DHT22;20426;48.372;10.888;2024-02-16T03:33:58;7.60;99.90
34153;DHT22;20426;48.372;10.888;2024-02-16T03:34:30;7.60;99.90
34153;DHT22;20426;48.372;10.888;2024-02-16T03:35:00;7.60;99.90
34153;DHT22;20426;48.372;10.888;2024-02-16T03:35:31;7.60;99.90
34153;DHT22;20426;48.372;10.888;2024-02-16T03:36:02;7.70;99.90
34153;DHT22;20426;48.372;10.888;2024-02-16T03:36:33;7.60;99.90
34153;DHT22;20426;48.372;10.888;2024-02-16T03:37:03;7.60;99.90
34153;DHT22;20426;48.372;10.888;2024-02-16T03:37:34;7.60;99.90
34153;DHT22;20426;48.372;10.888;2024-02-16T03:38:06;7.60;99.90
34153;DHT22;20426;48.372;10.888;2024-02-16T03:38:36;7.60;99.90
34153;DHT22;20426;48.372;10.888;2024-02-16T03:39:07;7.60;99.90
34153;DHT22;20426;48.372;10.888;2024-02-16T03:39:39;7.60;99.90
34153;DHT22;20426;48.372;10.888;2024-02-16T03:40:10;7.60;99.90
34153;DHT22;20426;48.372;10.888;2024-02-16T03:40:43;7.60;99.90
34153;DHT22;20426;48.372;10.888;2024-02-16T03:41:14;7.60;99.90
34153;DHT22;20426;48.372;10.888;2024-02-16T03:41:46;7.60;99.90
34153;DHT22;20426;48.372;10.888;2024-02-16T03:42:20;7.60;99.90
34153;DHT22;20426;48.372;10.888;2024-02-16T03:42:54;7.60;99.90
34153;DHT22;20426;48.372;10.888;2024-02-16T03:43:24;7.60;99.90
34153;DHT22;20426;48.372;10.888;2024-02-16T03:43:55;7.60;99.90
34153;DHT22;20426;48.372;10.888;2024-02-16T03:44:28;7.60;99.90
34153;DHT22;20426;48.372;10.888;2024-02-16T03:44:59;7.60;99.90
34153;DHT22;20426;48.372;10.888;2024-02-16T03:45:29;7.60;99.90
34153;DHT22;20426;48.372;10.888;2024-02-16T03:46:00;7.50;99.90
34153;DHT22;20426;48.372;10.888;2024-02-16T03:46:31;7.60;99.90
34153;DHT22;20426;48.372;10.888;2024-02-16T03:47:02;7.50;99.90
34153;DHT22;20426;48.372;10.888;2024-02-16T03:47:33;7.50;99.90
34153;DHT22;20426;48.372;10.888;2024-02-16T03:48:04;7.50;99.90
34153;DHT22;20426;48.372;10.888;2024-02-16T03:48:34;7.50;99.90
34153;DHT22;20426;48.372;10.888;2024-02-16T03:49:05;7.50;99.90
34153;DHT22;20426;48.372;10.888;2024-02-16T03:49:36;7.50;99.90
34153;DHT22;20426;48.372;10.888;2024-02-16T03:50:07;7.60;99.90
34153;DHT22;20426;48.372;10.888;2024-02-16T03:50:38;7.60;99.90
34153;DHT22;20426;48.372;10.888;2024-02-16T03:51:09;7.60;99.90
34153;DHT22;20426;48.372;10.888;2024-02-16T03:51:40;7.60;99.90
34153;DHT22;20426;48.372;10.888;2024-02-16T03:52:10;7.60;99.90
34153;DHT22;20426;48.372;10.888;2024-02-16T03:52:41;7.60;99.90
34153;DHT22;20426;48.372;10.888;2024-02-16T03:53:12;7.60;99.90
34153;DHT22;20426;48.372;10.888;2024-02-16T03:53:43;7.60;99.90
34153;DHT22;20426;48.372;10.888;2024-02-16T03:54:15;7.60;99.90